Time;durP1;ratioP1;P1;durP2;ratioP2;P2;SDS_P1;SDS_P2;PMS_P1;PMS_P2;Temp;Humidity;BMP_temperature;BMP_pressure;BME280_temperature;BME280_humidity;BME280_pressure;Samples;Min_cycle;Max_cycle;Signal;HPM_P1;HPM_P2
2023/10/21 00:02:37;;;;;;;1.20;0.85;;;10.40;99.90;;;;;;8258834;28;20022;-82
2023/10/21 00:06:39;;;;;;;0.77;0.77;;;10.50;99.90;;;;;;8271241;28;20108;-82
2023/10/21 00:10:39;;;;;;;0.70;0.60;;;10.40;99.90;;;;;;8271737;28;20037;-82
2023/10/21 00:14:40;;;;;;;1.20;0.93;;;10.60;99.90;;;;;;8264303;28;20372;-83
2023/10/21 00:18:40;;;;;;;2.35;0.63;;;10.60;99.90;;;;;;8256149;28;20445;-82
2023/10/21 00:22:41;;;;;;;1.77;0.70;;;10.40;99.90;;;;;;8259118;28;20109;-82
2023/10/21 00:26:48;;;;;;;0.82;0.57;;;10.30;99.90;;;;;;8252131;28;20025;-82
2023/10/21 00:30:49;;;;;;;2.63;0.80;;;10.30;99.90;;;;;;8266800;28;20173;-82
2023/10/21 00:34:50;;;;;;;0.93;0.70;;;10.20;99.90;;;;;;8260178;28;20671;-82
2023/10/21 00:38:50;;;;;;;1.02;0.65;;;10.20;99.90;;;;;;8292679;28;20029;-82
2023/10/21 00:42:51;;;;;;;0.70;0.68;;;10.20;99.90;;;;;;8235437;28;20022;-82
2023/10/21 00:46:51;;;;;;;0.75;0.60;;;10.40;99.90;;;;;;8256826;28;20018;-82
2023/10/21 00:50:52;;;;;;;0.90;0.80;;;10.50;99.90;;;;;;8250688;28;20407;-80
2023/10/21 00:54:58;;;;;;;0.93;0.52;;;10.40;99.90;;;;;;8275314;28;20030;-82
2023/10/21 00:58:58;;;;;;;0.73;0.50;;;10.50;99.90;;;;;;8267276;28;20034;-82
2023/10/21 01:03:00;;;;;;;0.98;0.50;;;10.40;99.90;;;;;;8258251;28;20034;-82
2023/10/21 01:07:00;;;;;;;1.38;0.80;;;10.40;99.90;;;;;;8284507;28;20022;-82
2023/10/21 01:11:01;;;;;;;0.70;0.65;;;10.40;99.90;;;;;;8281677;28;20048;-82
2023/10/21 01:15:01;;;;;;;1.02;0.70;;;10.40;99.90;;;;;;8257156;28;20037;-81
2023/10/21 01:19:06;;;;;;;1.00;0.73;;;10.40;99.90;;;;;;8285345;28;20113;-82
2023/10/21 01:23:07;;;;;;;1.17;0.80;;;10.30;99.90;;;;;;8264758;28;20030;-81
2023/10/21 01:27:08;;;;;;;2.63;1.00;;;10.30;99.90;;;;;;8281606;28;20105;-82
2023/10/21 01:31:08;;;;;;;1.00;0.70;;;10.40;99.90;;;;;;8259148;28;20034;-82
2023/10/21 01:35:09;;;;;;;0.20;0.20;;;10.40;99.90;;;;;;8261725;28;20034;-82
2023/10/21 01:39:10;;;;;;;0.50;0.17;;;10.70;99.90;;;;;;8250873;28;20080;-82
2023/10/21 01:43:10;;;;;;;1.23;0.25;;;11.20;99.90;;;;;;8270407;28;20030;-83
2023/10/21 01:47:11;;;;;;;0.32;0.28;;;11.60;99.90;;;;;;8248615;28;20023;-82
2023/10/21 01:51:13;;;;;;;0.20;0.20;;;11.70;99.90;;;;;;8278031;28;20033;-81
2023/10/21 01:55:15;;;;;;;3.75;0.32;;;11.80;99.90;;;;;;8274885;28;20030;-82
2023/10/21 01:59:15;;;;;;;0.30;0.20;;;11.90;99.90;;;;;;8271911;28;20032;-82
2023/10/21 02:03:16;;;;;;;0.20;0.20;;;12.00;99.90;;;;;;8266195;28;20022;-82
2023/10/21 02:07:17;;;;;;;0.45;0.28;;;11.90;99.90;;;;;;8287038;28;20074;-81
2023/10/21 02:11:22;;;;;;;0.25;0.20;;;11.90;99.90;;;;;;8269240;28;20030;-82
2023/10/21 02:15:22;;;;;;;0.50;0.30;;;11.90;99.90;;;;;;8287385;28;20364;-82
2023/10/21 02:19:24;;;;;;;0.30;0.25;;;12.00;99.90;;;;;;8269909;28;20045;-81
2023/10/21 02:23:25;;;;;;;0.20;0.20;;;11.90;99.90;;;;;;8266359;28;20022;-82
2023/10/21 02:27:25;;;;;;;0.20;0.20;;;11.70;99.90;;;;;;8254536;28;20018;-82
2023/10/21 02:31:26;;;;;;;0.30;0.30;;;11.70;99.90;;;;;;8284739;28;20101;-81
2023/10/21 02:35:26;;;;;;;1.13;0.40;;;11.90;99.90;;;;;;8266177;28;20025;-82
2023/10/21 02:39:27;;;;;;;0.60;0.43;;;11.90;99.90;;;;;;8254712;28;20048;-82
2023/10/21 02:43:27;;;;;;;0.70;0.50;;;12.20;99.90;;;;;;8249512;28;20454;-81
2023/10/21 02:47:28;;;;;;;0.38;0.38;;;12.20;99.90;;;;;;8233098;28;20018;-80
2023/10/21 02:51:29;;;;;;;0.55;0.50;;;12.10;99.90;;;;;;8251317;28;20029;-82
2023/10/21 02:55:29;;;;;;;1.10;0.30;;;12.20;99.90;;;;;;8239388;28;20042;-81
2023/10/21 02:59:30;;;;;;;0.50;0.50;;;12.20;99.90;;;;;;8266750;28;20026;-82
2023/10/21 03:03:31;;;;;;;0.40;0.40;;;12.20;99.90;;;;;;8257990;28;20038;-81
2023/10/21 03:07:31;;;;;;;0.63;0.50;;;12.30;99.90;;;;;;8262118;28;20030;-81
2023/10/21 03:11:32;;;;;;;0.50;0.45;;;12.40;99.90;;;;;;8251661;28;20393;-82
2023/10/21 03:15:35;;;;;;;1.90;0.50;;;12.20;99.90;;;;;;8267186;28;20022;-82
2023/10/21 03:19:36;;;;;;;1.85;0.50;;;12.10;99.90;;;;;;8261447;28;20154;-81
2023/10/21 03:23:37;;;;;;;0.65;0.43;;;12.00;99.90;;;;;;8249943;28;20015;-81
2023/10/21 03:27:37;;;;;;;1.65;0.60;;;11.90;99.90;;;;;;8257704;28;20049;-81
2023/10/21 03:31:38;;;;;;;0.57;0.57;;;11.80;99.90;;;;;;8270235;28;20022;-81
2023/10/21 03:35:38;;;;;;;2.20;0.57;;;11.80;99.90;;;;;;8273087;28;20027;-81
2023/10/21 03:39:41;;;;;;;0.40;0.40;;;11.60;99.90;;;;;;8256055;28;20632;-81
2023/10/21 03:43:41;;;;;;;1.88;0.75;;;11.70;99.90;;;;;;8279306;28;20018;-81
2023/10/21 03:47:42;;;;;;;1.25;0.70;;;11.70;99.90;;;;;;8280550;28;20382;-82
2023/10/21 03:51:42;;;;;;;0.80;0.70;;;11.80;99.90;;;;;;8254752;28;20022;-82
2023/10/21 03:55:44;;;;;;;3.28;0.75;;;11.70;99.90;;;;;;8265936;28;20033;-82
2023/10/21 03:59:44;;;;;;;1.20;0.70;;;11.60;99.90;;;;;;8296312;28;20041;-82
2023/10/21 04:03:45;;;;;;;1.20;0.73;;;11.60;99.90;;;;;;8265978;28;20045;-82
2023/10/21 04:07:45;;;;;;;0.95;0.70;;;11.60;99.90;;;;;;8267767;28;20487;-82
2023/10/21 04:11:46;;;;;;;1.13;0.65;;;11.60;99.90;;;;;;8262852;28;20033;-80
2023/10/21 04:15:47;;;;;;;0.45;0.40;;;11.70;99.90;;;;;;8290303;28;20022;-81
2023/10/21 04:19:47;;;;;;;0.65;0.50;;;11.70;99.90;;;;;;8277318;28;20085;-82
2023/10/21 04:23:48;;;;;;;0.70;0.60;;;11.70;99.90;;;;;;8274801;28;20015;-81
2023/10/21 04:27:48;;;;;;;0.70;0.57;;;11.70;99.90;;;;;;8262282;28;20023;-82
2023/10/21 04:31:49;;;;;;;0.77;0.55;;;11.70;99.90;;;;;;8258017;28;20056;-81
2023/10/21 04:35:49;;;;;;;0.50;0.50;;;11.80;99.90;;;;;;8249571;28;20113;-81
2023/10/21 04:39:51;;;;;;;0.70;0.70;;;11.80;99.90;;;;;;8250972;28;20038;-82
2023/10/21 04:43:52;;;;;;;0.73;0.68;;;11.70;99.90;;;;;;8259611;28;20026;-82
2023/10/21 04:47:52;;;;;;;1.48;0.63;;;11.70;99.90;;;;;;8258291;28;20474;-79
2023/10/21 04:51:53;;;;;;;0.82;0.60;;;11.80;99.90;;;;;;8248699;28;20034;-82
2023/10/21 04:55:53;;;;;;;1.30;0.50;;;11.90;99.90;;;;;;8255893;28;20034;-81
2023/10/21 04:59:54;;;;;;;0.90;0.57;;;12.00;99.90;;;;;;8260508;28;20041;-81
2023/10/21 05:03:54;;;;;;;0.52;0.52;;;12.20;99.90;;;;;;8268932;28;20153;-81
2023/10/21 05:07:55;;;;;;;2.45;0.60;;;12.20;99.90;;;;;;8259065;28;20398;-80
2023/10/21 05:11:55;;;;;;;1.45;0.75;;;12.20;99.90;;;;;;8263591;28;20068;-81
2023/10/21 05:15:56;;;;;;;1.85;0.50;;;12.30;99.90;;;;;;8272621;28;20015;-81
2023/10/21 05:19:57;;;;;;;0.57;0.50;;;12.20;99.90;;;;;;8280808;28;20080;-81
2023/10/21 05:23:58;;;;;;;0.50;0.43;;;12.10;99.90;;;;;;8266286;28;20019;-82
2023/10/21 05:27:59;;;;;;;0.50;0.47;;;12.20;99.90;;;;;;8272371;28;20041;-82
2023/10/21 05:31:59;;;;;;;1.08;0.70;;;12.30;99.90;;;;;;8274416;28;20050;-80
2023/10/21 05:36:00;;;;;;;0.80;0.60;;;12.40;99.90;;;;;;8289419;28;20037;-81
2023/10/21 05:40:05;;;;;;;0.80;0.50;;;12.40;99.90;;;;;;8265093;28;20030;-82
2023/10/21 05:44:05;;;;;;;0.75;0.40;;;12.50;99.90;;;;;;8286505;28;20023;-80
2023/10/21 05:48:06;;;;;;;0.70;0.52;;;12.40;99.90;;;;;;8261351;28;20037;-82
2023/10/21 05:52:07;;;;;;;0.55;0.50;;;12.50;99.90;;;;;;8262851;28;20034;-82
2023/10/21 05:56:12;;;;;;;0.70;0.60;;;12.50;99.90;;;;;;8265801;28;20030;-82
2023/10/21 06:00:13;;;;;;;0.65;0.30;;;12.50;99.90;;;;;;8256500;28;20446;-81
2023/10/21 06:04:13;;;;;;;0.90;0.40;;;12.50;99.90;;;;;;8264416;28;20026;-81
2023/10/21 06:08:14;;;;;;;0.50;0.40;;;12.50;99.90;;;;;;8262144;28;20081;-80
2023/10/21 06:12:15;;;;;;;0.40;0.30;;;12.50;99.90;;;;;;8269332;28;20030;-82
2023/10/21 06:16:15;;;;;;;1.00;0.30;;;12.40;99.90;;;;;;8260652;28;20600;-82
2023/10/21 06:20:16;;;;;;;0.55;0.35;;;12.40;99.90;;;;;;8268405;28;20388;-82
2023/10/21 06:24:17;;;;;;;0.20;0.20;;;12.30;99.90;;;;;;8270854;28;20030;-82
2023/10/21 06:28:18;;;;;;;0.35;0.35;;;12.40;99.90;;;;;;8246858;28;20023;-80
2023/10/21 06:32:18;;;;;;;0.30;0.30;;;12.40;99.90;;;;;;8250488;28;20422;-81
2023/10/21 06:36:19;;;;;;;0.20;0.20;;;12.40;99.90;;;;;;8264746;28;20023;-81
2023/10/21 06:40:20;;;;;;;0.40;0.20;;;12.40;99.90;;;;;;8261361;28;20042;-83
2023/10/21 06:44:21;;;;;;;0.30;0.20;;;12.40;99.90;;;;;;8275700;28;20046;-81
2023/10/21 06:48:21;;;;;;;0.22;0.20;;;12.40;99.90;;;;;;8269637;28;20402;-81
2023/10/21 06:52:22;;;;;;;0.17;0.10;;;12.50;99.90;;;;;;8270084;28;20041;-82
2023/10/21 06:56:22;;;;;;;2.13;0.20;;;12.60;99.90;;;;;;8283126;28;20031;-82
2023/10/21 07:00:23;;;;;;;1.55;0.20;;;12.80;99.90;;;;;;8266861;28;20029;-81
2023/10/21 07:04:24;;;;;;;0.17;0.17;;;12.90;99.90;;;;;;8260306;28;20022;-81
2023/10/21 07:08:24;;;;;;;0.20;0.20;;;13.10;99.90;;;;;;8284284;28;20037;-82
2023/10/21 07:12:25;;;;;;;0.30;0.30;;;13.20;99.90;;;;;;8277346;28;20037;-81
2023/10/21 07:16:25;;;;;;;0.30;0.30;;;13.20;99.90;;;;;;8276626;28;20062;-81
2023/10/21 07:20:26;;;;;;;0.28;0.28;;;13.20;99.90;;;;;;8260589;28;20037;-80
2023/10/21 07:24:26;;;;;;;0.20;0.20;;;13.40;99.90;;;;;;8270329;28;20026;-81
2023/10/21 07:28:27;;;;;;;0.20;0.10;;;13.50;99.90;;;;;;8265310;28;20026;-81
2023/10/21 07:32:27;;;;;;;0.10;0.10;;;13.70;99.90;;;;;;8276348;28;20076;-80
2023/10/21 07:36:28;;;;;;;0.50;0.38;;;13.80;99.90;;;;;;8262310;28;20437;-81
2023/10/21 07:40:31;;;;;;;0.40;0.20;;;14.00;99.90;;;;;;8283044;28;20018;-81
2023/10/21 07:44:32;;;;;;;0.30;0.10;;;14.00;99.90;;;;;;8272924;28;20062;-81
2023/10/21 07:48:32;;;;;;;0.20;0.20;;;14.20;99.90;;;;;;8255929;28;20453;-80
2023/10/21 07:52:35;;;;;;;0.30;0.20;;;14.30;99.90;;;;;;8264208;28;20038;-81
2023/10/21 07:56:36;;;;;;;0.38;0.20;;;14.20;99.90;;;;;;8259437;28;20021;-81
2023/10/21 08:00:36;;;;;;;0.10;0.10;;;14.10;99.90;;;;;;8292484;28;20036;-80
2023/10/21 08:04:37;;;;;;;0.15;0.13;;;14.00;99.90;;;;;;8292971;28;20018;-81
2023/10/21 08:08:37;;;;;;;0.30;0.20;;;14.00;99.90;;;;;;8279652;28;20034;-81
2023/10/21 08:12:39;;;;;;;0.20;0.20;;;14.10;99.90;;;;;;8265808;28;20494;-81
2023/10/21 08:16:39;;;;;;;0.75;0.30;;;13.80;99.90;;;;;;8270849;28;20164;-83
2023/10/21 08:20:40;;;;;;;0.20;0.20;;;13.70;99.90;;;;;;8276459;28;20035;-82
2023/10/21 08:24:41;;;;;;;0.20;0.20;;;13.60;99.90;;;;;;8256103;28;20026;-81
2023/10/21 08:28:41;;;;;;;0.70;0.28;;;13.40;99.90;;;;;;8276031;28;20455;-81
2023/10/21 08:32:42;;;;;;;0.88;0.30;;;13.30;99.90;;;;;;8281383;28;20037;-82
2023/10/21 08:36:42;;;;;;;0.43;0.40;;;13.20;99.90;;;;;;8265665;28;20431;-81
2023/10/21 08:40:46;;;;;;;0.30;0.20;;;13.20;99.90;;;;;;8275500;28;20038;-82
2023/10/21 08:44:49;;;;;;;1.40;0.30;;;13.30;99.90;;;;;;8238717;28;20073;-82
2023/10/21 08:48:50;;;;;;;0.95;0.38;;;13.30;99.90;;;;;;8248899;28;20018;-82
2023/10/21 08:52:54;;;;;;;1.10;0.40;;;13.40;99.90;;;;;;8258032;28;20589;-82
2023/10/21 08:56:55;;;;;;;0.80;0.32;;;13.40;99.90;;;;;;8243579;28;20027;-81
2023/10/21 09:00:55;;;;;;;4.05;1.52;;;13.70;99.90;;;;;;8252161;28;20032;-82
2023/10/21 09:04:57;;;;;;;0.20;0.20;;;14.20;99.90;;;;;;8279751;28;20022;-80
2023/10/21 09:08:57;;;;;;;0.30;0.30;;;14.40;99.90;;;;;;8246998;28;20037;-80
2023/10/21 09:13:13;;;;;;;0.65;0.40;;;14.40;99.90;;;;;;8278247;28;20033;-80
2023/10/21 09:17:13;;;;;;;1.00;0.60;;;14.80;99.90;;;;;;8266983;28;20033;-80
2023/10/21 09:21:14;;;;;;;1.33;0.20;;;15.10;99.90;;;;;;8261321;28;20041;-81
2023/10/21 09:25:19;;;;;;;0.70;0.20;;;15.20;99.90;;;;;;8235009;28;20023;-84
2023/10/21 09:29:22;;;;;;;0.20;0.20;;;15.30;99.90;;;;;;8280809;28;20035;-81
2023/10/21 09:33:23;;;;;;;0.43;0.30;;;15.20;99.90;;;;;;8252013;28;20507;-80
2023/10/21 09:37:26;;;;;;;0.43;0.40;;;15.00;99.90;;;;;;8249087;28;20045;-81
2023/10/21 09:41:27;;;;;;;0.95;0.60;;;15.20;99.90;;;;;;8277826;28;20028;-81
2023/10/21 09:45:28;;;;;;;5.68;3.28;;;15.20;99.90;;;;;;8265684;28;20029;-79
2023/10/21 09:49:40;;;;;;;2.08;0.47;;;15.50;99.90;;;;;;8256591;28;20036;-81
2023/10/21 09:53:47;;;;;;;1.90;1.20;;;15.80;99.90;;;;;;8278768;28;20049;-80
2023/10/21 09:57:48;;;;;;;0.77;0.30;;;15.80;99.90;;;;;;8282938;28;20101;-81
2023/10/21 10:01:56;;;;;;;;;;;15.70;99.90;;;;;;8409772;28;20440;-81
2023/10/21 10:05:56;;;;;;;0.50;0.50;;;15.70;99.90;;;;;;8404248;28;20388;-80
2023/10/21 10:09:57;;;;;;;0.20;0.20;;;16.00;99.90;;;;;;8406924;28;20025;-80
2023/10/21 10:13:58;;;;;;;0.38;0.38;;;16.20;99.90;;;;;;8400285;28;20020;-80
2023/10/21 10:18:06;;;;;;;0.20;0.20;;;16.30;99.90;;;;;;8394507;28;20115;-81
2023/10/21 10:22:18;;;;;;;0.20;0.20;;;16.30;99.90;;;;;;8390596;28;20585;-80
2023/10/21 10:26:38;;;;;;;0.50;0.40;;;16.30;99.90;;;;;;8375931;28;20036;-81
2023/10/21 10:30:46;;;;;;;0.57;0.55;;;16.30;99.90;;;;;;8388889;28;20031;-81
2023/10/21 10:34:53;;;;;;;1.17;0.68;;;16.50;99.90;;;;;;8394944;28;20069;-82
2023/10/21 10:38:54;;;;;;;0.22;0.22;;;16.50;99.90;;;;;;8396027;28;20083;-81
2023/10/21 10:42:56;;;;;;;0.40;0.22;;;16.70;99.90;;;;;;8380200;28;20048;-81
2023/10/21 10:46:57;;;;;;;0.80;0.40;;;16.70;99.90;;;;;;8392640;28;20069;-81
2023/10/21 10:51:00;;;;;;;0.70;0.55;;;16.90;99.90;;;;;;8392720;28;20036;-81
2023/10/21 10:55:06;;;;;;;0.70;0.40;;;16.80;99.90;;;;;;8372736;28;20044;-81
2023/10/21 10:59:06;;;;;;;0.70;0.60;;;16.70;99.90;;;;;;8381620;28;20036;-81
2023/10/21 11:03:08;;;;;;;1.80;0.50;;;16.30;99.90;;;;;;8407244;28;20043;-81
2023/10/21 11:07:10;;;;;;;0.73;0.65;;;16.40;99.90;;;;;;8386030;28;20032;-81
2023/10/21 11:11:11;;;;;;;1.42;0.60;;;16.40;99.90;;;;;;8380624;28;20123;-81
2023/10/21 11:15:12;;;;;;;1.35;0.30;;;16.20;99.90;;;;;;8356335;28;20029;-80
2023/10/21 11:19:12;;;;;;;0.85;0.38;;;16.50;99.90;;;;;;8375476;28;20033;-80
2023/10/21 11:23:13;;;;;;;0.70;0.60;;;16.70;99.90;;;;;;8393111;28;20049;-81
2023/10/21 11:27:15;;;;;;;0.40;0.40;;;16.60;99.90;;;;;;8361748;28;20075;-81
2023/10/21 11:31:18;;;;;;;0.30;0.20;;;16.70;99.90;;;;;;8356703;28;20100;-81
2023/10/21 11:35:19;;;;;;;0.50;0.35;;;16.90;99.90;;;;;;8347190;28;20430;-80
2023/10/21 11:39:21;;;;;;;0.52;0.38;;;17.40;99.90;;;;;;8346601;28;20034;-81
2023/10/21 11:43:25;;;;;;;0.30;0.30;;;17.60;99.90;;;;;;8366664;28;20025;-81
2023/10/21 11:47:30;;;;;;;0.32;0.20;;;17.30;99.90;;;;;;8368314;28;20033;-80
2023/10/21 11:51:32;;;;;;;0.63;0.30;;;16.80;99.90;;;;;;8367407;28;20025;-80
2023/10/21 12:04:51;;;;;;;0.70;0.30;;;15.20;99.90;;;;;;8361346;28;20092;-81
2023/10/21 12:09:38;;;;;;;0.47;0.45;;;14.80;99.90;;;;;;8350385;28;20115;-81
2023/10/21 12:26:19;;;;;;;0.75;0.40;;;13.80;99.90;;;;;;8347345;28;20021;-80
2023/10/21 12:47:17;;;;;;;2.08;0.60;;;13.50;99.90;;;;;;8347811;28;20468;-81
2023/10/21 12:51:19;;;;;;;0.68;0.43;;;13.60;99.90;;;;;;8370641;28;20021;-82
2023/10/21 12:55:25;;;;;;;0.95;0.40;;;13.60;99.90;;;;;;8359913;28;20395;-81
2023/10/21 12:59:25;;;;;;;1.92;0.70;;;13.30;99.90;;;;;;8355745;28;20030;-82
2023/10/21 13:03:26;;;;;;;0.60;0.40;;;13.20;99.90;;;;;;8353665;28;20223;-81
2023/10/21 13:07:27;;;;;;;0.30;0.30;;;12.90;99.90;;;;;;8358961;28;20040;-82
2023/10/21 13:11:28;;;;;;;1.10;0.55;;;12.70;99.90;;;;;;8368821;28;20397;-81
2023/10/21 13:15:29;;;;;;;1.33;0.60;;;12.60;99.90;;;;;;8340132;28;20367;-82
2023/10/21 13:19:30;;;;;;;0.40;0.40;;;12.50;99.90;;;;;;8348044;28;20630;-83
2023/10/21 13:23:30;;;;;;;1.67;0.52;;;12.30;99.90;;;;;;8348843;28;20052;-80
2023/10/21 13:27:30;;;;;;;3.20;0.60;;;12.50;99.90;;;;;;8346096;28;20024;-81
2023/10/21 13:31:33;;;;;;;1.33;0.40;;;12.40;99.90;;;;;;8358036;28;20033;-82
2023/10/21 13:35:36;;;;;;;0.50;0.30;;;12.30;99.90;;;;;;8339770;28;20064;-82
2023/10/21 13:39:37;;;;;;;0.73;0.45;;;12.00;99.90;;;;;;8349583;28;20021;-82
2023/10/21 13:43:38;;;;;;;0.88;0.43;;;11.90;99.90;;;;;;8344444;28;20388;-81
2023/10/21 13:47:39;;;;;;;0.40;0.40;;;11.80;99.90;;;;;;8351381;28;20012;-81
2023/10/21 13:51:41;;;;;;;2.35;0.70;;;11.60;99.90;;;;;;8350158;28;20108;-81
2023/10/21 13:55:42;;;;;;;0.80;0.60;;;11.60;99.90;;;;;;8347000;28;20032;-81
